Sheridan, WY

8:57 PM MST on December 25, 2014 (GMT -0700)
Sheridan County | Change Station
CLOSE
Current Station
Airport
Location: Sheridan,
Elevation: 3967 ft
Nearby Weather Stations

Elev 3967 ft 44.76 °N, 106.97 °W | Updated 4 minutes ago

Snow
Snow
20 °F
Feels Like 12 °F
N
6
Wind Variable Wind from WNW

Today
High -- | Low -- °F
--% Chance of Precip.
Yesterday
High -- | Low -- °F
Precip. -- in
7:43 AM 4:32 PM
Waxing Crescent, 22% visible
Pressure 30.12 in
Visibility 10.0 miles
Clouds Mostly Cloudy 1300 ft
Mostly Cloudy 1900 ft
Overcast 2400 ft
Windchill 12 °F
Dew Point 16 °F
Humidity 85%
Rainfall 0.37 in
Snow Depth Not available.
UV 0 out of 12
Pollen .10 out of 12
Air Quality Not available.
Flu Activity Not available.
METAR KSHR 260353Z AUTO 29005KT 10SM BKN013 BKN019 OVC024 M07/M09 A2998 RMK AO2 SNE07 SLP198 P0000 T10671089

More Conditions Fewer Conditions

Pressure 30.12 in
Visibility 10.0 miles
Clouds Mostly Cloudy 1300 ft
Mostly Cloudy 1900 ft
Overcast 2400 ft
Windchill 12 °F
Dew Point 16 °F
Humidity 85%
Rainfall 0.37 in
Snow Depth Not available.
UV 0 out of 12
Pollen .10 out of 12
Air Quality Not available.
Flu Activity Not available.
METAR KSHR 260353Z AUTO 29005KT 10SM BKN013 BKN019 OVC024 M07/M09 A2998 RMK AO2 SNE07 SLP198 P0000 T10671089

More Conditions Fewer Conditions

10-Day Weather Forecast

Almanac

Astronomy

Dec. 25, 2014 Rise Set
Actual Time
Civil Twilight
Nautical Twilight
Astronomical Twilight
Moon
Length of Visible Light
Length of Day
Tomorrow will be .
, % of the Moon is Illuminated

Today's Extremes

State Highs State Lows

Community

WunderPhotos

Upload Photos

1,780,534 photos uploaded!

WunderBlogs® & News

Nearby

Air Quality

  Air Quality AQ Index Pollutant
Not available.

Snow Depth

Station Depth Elevation

Earthquake Activity

City Distance Mag. Time & Date
Minimum magnitude displayed is 2.5.

Coastal Water Temperatures

Place Temperature

Nearby Weather Stations